Time;durP1;ratioP1;P1;durP2;ratioP2;P2;SDS_P1;SDS_P2;PMS_P1;PMS_P2;Temp;Humidity;BMP_temperature;BMP_pressure;BME280_temperature;BME280_humidity;BME280_pressure;Samples;Min_cycle;Max_cycle;Signal;HPM_P1;HPM_P2
2024/04/09 00:00:41;;;;;;;5.85;3.95;;;;;;;12.18;100.00;100548.63;5416162;26;20025;-74
2024/04/09 00:03:08;;;;;;;5.18;3.75;;;;;;;12.18;100.00;100537.91;5400357;26;20039;-73
2024/04/09 00:05:39;;;;;;;7.95;4.65;;;;;;;12.18;100.00;100526.38;5402805;26;20927;-75
2024/04/09 00:08:10;;;;;;;8.00;3.70;;;;;;;12.18;100.00;100521.78;5397012;26;20013;-76
2024/04/09 00:10:40;;;;;;;8.98;3.60;;;;;;;12.20;100.00;100519.66;5438378;26;20834;-74
2024/04/09 00:13:07;;;;;;;5.45;3.47;;;;;;;12.23;100.00;100521.75;5421216;26;20003;-73
2024/04/09 00:15:33;;;;;;;;;;;;;;;12.26;100.00;100523.03;5409063;26;20007;-75
2024/04/09 00:18:14;;;;;;;5.20;3.10;;;;;;;12.24;100.00;100517.16;5426921;26;19925;-75
2024/04/09 00:20:44;;;;;;;6.57;3.95;;;;;;;12.24;100.00;100509.91;5396790;26;20004;-75
2024/04/09 00:23:12;;;;;;;6.57;4.35;;;;;;;12.25;100.00;100503.44;5397947;26;20014;-74
2024/04/09 00:25:39;;;;;;;6.00;3.72;;;;;;;12.23;100.00;100508.31;5375246;26;20059;-73
2024/04/09 00:28:04;;;;;;;11.27;5.10;;;;;;;12.23;100.00;100505.63;5395882;26;20204;-73
2024/04/09 00:30:30;;;;;;;10.20;4.05;;;;;;;12.20;100.00;100503.53;5455056;26;20483;-74
2024/04/09 00:32:56;;;;;;;;;;;;;;;12.19;100.00;100506.47;5426385;26;20007;-73
2024/04/09 00:35:22;;;;;;;6.38;3.25;;;;;;;12.16;100.00;100502.50;5406721;26;19924;-73
2024/04/09 00:37:51;;;;;;;9.32;3.42;;;;;;;12.13;100.00;100497.72;5369443;26;20003;-73
2024/04/09 00:40:19;;;;;;;7.57;3.90;;;;;;;12.14;100.00;100504.69;5438467;26;20007;-74
2024/04/09 00:42:49;;;;;;;6.45;3.42;;;;;;;12.13;100.00;100508.44;5413593;26;20026;-74
2024/04/09 00:45:19;;;;;;;5.05;3.10;;;;;;;12.12;100.00;100504.13;5425230;26;20018;-74
2024/04/09 00:47:53;;;;;;;5.45;3.08;;;;;;;12.12;100.00;100496.09;5427577;26;20384;-73
2024/04/09 00:50:20;;;;;;;9.63;3.95;;;;;;;12.13;100.00;100494.22;5381711;26;20861;-72
2024/04/09 00:52:48;;;;;;;8.05;4.65;;;;;;;12.10;100.00;100490.22;5337232;26;20003;-73
2024/04/09 00:55:16;;;;;;;10.57;4.57;;;;;;;12.13;100.00;100478.91;5399555;26;20017;-71
2024/04/09 00:57:48;;;;;;;9.38;4.75;;;;;;;12.15;100.00;100482.09;5431473;26;20849;-72
2024/04/09 01:00:16;;;;;;;9.43;4.57;;;;;;;12.19;100.00;100496.56;5432026;26;20500;-72
2024/04/09 01:02:42;;;;;;;7.07;4.55;;;;;;;12.24;100.00;100499.19;5426725;26;20018;-72
2024/04/09 01:05:09;;;;;;;9.50;4.65;;;;;;;12.29;100.00;100501.00;5417340;26;20007;-72
2024/04/09 01:07:37;;;;;;;7.95;5.05;;;;;;;12.32;100.00;100505.78;5394319;26;20021;-72
2024/04/09 01:10:05;;;;;;;7.95;5.13;;;;;;;12.37;100.00;100515.69;5397573;26;20108;-74
2024/04/09 01:12:31;;;;;;;7.40;4.13;;;;;;;12.37;100.00;100513.00;5426576;26;20018;-73
2024/04/09 01:14:57;;;;;;;6.45;4.20;;;;;;;12.36;100.00;100514.88;5405690;26;20003;-73
2024/04/09 01:17:24;;;;;;;;;;;;;;;12.39;100.00;100524.25;5399665;26;20014;-74
2024/04/09 01:19:51;;;;;;;7.47;3.85;;;;;;;12.35;100.00;100515.97;5369759;26;20054;-72
2024/04/09 01:22:17;;;;;;;8.20;4.88;;;;;;;12.37;100.00;100518.38;5418689;26;20015;-73
2024/04/09 01:24:42;;;;;;;5.45;3.78;;;;;;;12.38;100.00;100511.91;5402428;26;21361;-72
2024/04/09 01:27:14;;;;;;;4.75;3.88;;;;;;;12.38;100.00;100514.59;5438064;26;20527;-72
2024/04/09 01:29:43;;;;;;;7.13;4.47;;;;;;;12.36;100.00;100516.78;5366563;26;20012;-72
2024/04/09 01:32:08;;;;;;;7.32;4.28;;;;;;;12.34;100.00;100508.22;5384679;26;20017;-74
2024/04/09 01:34:36;;;;;;;9.55;4.53;;;;;;;12.29;100.00;100495.63;5421117;26;20011;-73
2024/04/09 01:37:02;;;;;;;6.28;3.90;;;;;;;12.26;100.00;100493.50;5371589;26;20022;-74
2024/04/09 01:39:28;;;;;;;7.03;3.80;;;;;;;12.24;100.00;100487.63;5426527;26;20022;-72
2024/04/09 01:41:55;;;;;;;8.00;4.45;;;;;;;12.21;100.00;100472.91;5390768;26;20089;-73
2024/04/09 01:44:21;;;;;;;6.43;3.78;;;;;;;12.18;100.00;100473.47;5427897;26;20007;-73
2024/04/09 01:46:48;;;;;;;8.55;4.75;;;;;;;12.16;100.00;100451.50;5395987;26;20014;-75
2024/04/09 01:49:16;;;;;;;7.25;3.90;;;;;;;12.18;100.00;100461.94;5429980;26;20076;-75
2024/04/09 01:51:43;;;;;;;8.45;4.78;;;;;;;12.20;100.00;100455.22;5425998;26;20014;-73
2024/04/09 01:54:09;;;;;;;6.65;4.63;;;;;;;12.22;100.00;100453.03;5428166;26;19999;-74
2024/04/09 01:56:35;;;;;;;8.90;4.40;;;;;;;12.25;100.00;100460.50;5425071;26;20454;-73
2024/04/09 01:59:01;;;;;;;;;;;;;;;12.29;100.00;100468.78;5427387;26;20017;-73
2024/04/09 02:01:30;;;;;;;8.88;4.47;;;;;;;12.28;100.00;100457.25;5397834;26;19932;-72
2024/04/09 02:03:56;;;;;;;6.38;3.90;;;;;;;12.29;100.00;100464.22;5416610;26;20920;-73
2024/04/09 02:06:26;;;;;;;6.07;3.20;;;;;;;12.32;100.00;100456.66;5424243;26;19999;-72
2024/04/09 02:08:51;;;;;;;7.82;4.15;;;;;;;12.33;100.00;100447.50;5403313;26;20007;-76
2024/04/09 02:11:17;;;;;;;6.40;3.40;;;;;;;12.35;100.00;100464.16;5422558;26;20358;-72
2024/04/09 02:13:47;;;;;;;6.90;3.90;;;;;;;12.35;100.00;100472.22;5434750;26;20007;-73
2024/04/09 02:16:16;;;;;;;8.02;4.03;;;;;;;12.38;100.00;100472.44;5430236;26;20367;-73
2024/04/09 02:18:42;;;;;;;7.15;4.35;;;;;;;12.40;100.00;100466.78;5366269;26;20905;-73
2024/04/09 02:21:09;;;;;;;8.32;4.05;;;;;;;12.43;100.00;100463.50;5425282;26;20010;-72
2024/04/09 02:23:39;;;;;;;8.02;4.53;;;;;;;12.44;100.00;100467.78;5385221;26;20011;-73
2024/04/09 02:26:05;;;;;;;6.60;4.00;;;;;;;12.44;100.00;100457.84;5383873;26;20003;-72
2024/04/09 02:28:31;;;;;;;10.27;4.32;;;;;;;12.46;100.00;100468.28;5390952;26;20018;-71
2024/04/09 02:30:56;;;;;;;;;;;;;;;12.46;100.00;100457.56;5425974;26;20550;-73
2024/04/09 02:33:23;;;;;;;7.80;4.18;;;;;;;12.42;100.00;100446.59;5429137;26;19932;-74
2024/04/09 02:35:59;;;;;;;6.05;3.97;;;;;;;12.44;100.00;100465.09;5372283;26;20000;-73
2024/04/09 02:38:26;;;;;;;7.05;4.03;;;;;;;12.42;100.00;100472.66;5426374;26;20409;-71
2024/04/09 02:40:51;;;;;;;6.88;4.05;;;;;;;12.41;100.00;100461.13;5368856;26;20046;-72
2024/04/09 02:43:17;;;;;;;13.40;4.13;;;;;;;12.39;100.00;100463.28;5414274;26;20090;-74
2024/04/09 02:45:44;;;;;;;8.90;4.20;;;;;;;12.35;100.00;100458.78;5420148;26;20419;-74
2024/04/09 02:48:10;;;;;;;7.97;4.25;;;;;;;12.35;100.00;100456.09;5386814;26;20013;-74
2024/04/09 02:50:38;;;;;;;5.93;3.65;;;;;;;12.32;100.00;100457.47;5460934;26;20015;-73
2024/04/09 02:53:04;;;;;;;10.95;4.60;;;;;;;12.34;100.00;100471.41;5399666;26;20058;-73
2024/04/09 02:55:30;;;;;;;8.48;4.70;;;;;;;12.34;100.00;100474.09;5428427;26;20023;-73
2024/04/09 02:57:55;;;;;;;13.48;5.03;;;;;;;12.28;100.00;100454.56;5424066;26;20003;-75
2024/04/09 03:00:21;;;;;;;9.32;5.15;;;;;;;12.29;100.00;100453.47;5433719;26;20638;-74
2024/04/09 03:02:51;;;;;;;9.00;4.60;;;;;;;12.32;100.00;100452.09;5443853;26;20083;-74
2024/04/09 03:05:32;;;;;;;10.70;5.70;;;;;;;12.35;100.00;100456.09;5436958;26;20017;-73
2024/04/09 03:08:01;;;;;;;10.48;5.28;;;;;;;12.34;100.00;100462.56;5401984;26;20003;-73
2024/04/09 03:10:32;;;;;;;8.88;4.43;;;;;;;12.37;100.00;100467.34;5429447;26;20456;-73
2024/04/09 03:12:58;;;;;;;6.28;4.45;;;;;;;12.38;100.00;100460.88;5400827;26;20395;-75
2024/04/09 03:15:24;;;;;;;5.93;4.10;;;;;;;12.36;100.00;100463.06;5411176;26;19999;-75
2024/04/09 03:17:53;;;;;;;6.43;4.50;;;;;;;12.36;100.00;100460.38;5437478;26;20057;-72
2024/04/09 03:20:18;;;;;;;8.70;5.68;;;;;;;12.34;100.00;100449.94;5440668;26;20730;-73
2024/04/09 03:22:44;;;;;;;6.35;4.32;;;;;;;12.34;100.00;100449.13;5406313;26;20061;-76
2024/04/09 03:25:10;;;;;;;;;;;;;;;12.34;100.00;100449.13;5375199;26;20844;-73
2024/04/09 03:27:36;;;;;;;7.68;4.35;;;;;;;12.32;100.00;100446.72;5432184;26;19924;-75
2024/04/09 03:30:06;;;;;;;9.15;4.95;;;;;;;12.33;100.00;100436.78;5393258;26;20022;-73
2024/04/09 03:32:31;;;;;;;8.98;5.90;;;;;;;12.36;100.00;100436.22;5427055;26;20013;-74
2024/04/09 03:34:57;;;;;;;9.82;5.32;;;;;;;12.36;100.00;100430.84;5432208;26;20003;-73
2024/04/09 03:37:23;;;;;;;11.10;5.25;;;;;;;12.40;100.00;100432.69;5391511;26;20011;-73
2024/04/09 03:39:49;;;;;;;7.93;5.13;;;;;;;12.42;100.00;100427.00;5426072;26;20011;-72
2024/04/09 03:42:17;;;;;;;9.48;4.93;;;;;;;12.43;100.00;100423.22;5394759;26;20004;-72
2024/04/09 03:44:44;;;;;;;8.73;4.97;;;;;;;12.47;100.00;100427.75;5390946;26;20886;-74
2024/04/09 03:47:10;;;;;;;9.15;5.22;;;;;;;12.52;100.00;100418.78;5405366;26;20003;-75
2024/04/09 03:49:36;;;;;;;8.77;5.85;;;;;;;12.55;100.00;100413.66;5437882;26;20033;-74
2024/04/09 03:52:02;;;;;;;8.45;5.00;;;;;;;12.57;100.00;100405.31;5435421;26;20773;-73
2024/04/09 03:54:28;;;;;;;6.60;4.32;;;;;;;12.57;100.00;100405.31;5401288;26;20035;-74
2024/04/09 03:56:54;;;;;;;12.98;5.60;;;;;;;12.57;100.00;100411.47;5432475;26;20076;-75
2024/04/09 03:59:20;;;;;;;7.72;3.80;;;;;;;12.59;100.00;100408.50;5432984;26;20000;-73
2024/04/09 04:01:47;;;;;;;7.47;5.03;;;;;;;12.57;100.00;100400.72;5432609;26;20451;-73
2024/04/09 04:04:17;;;;;;;10.45;4.43;;;;;;;12.60;100.00;100404.75;5369182;26;20018;-74
2024/04/09 04:06:43;;;;;;;6.55;4.70;;;;;;;12.61;100.00;100409.00;5420322;26;20007;-75
2024/04/09 04:09:10;;;;;;;8.32;4.80;;;;;;;12.60;100.00;100412.78;5432301;26;20085;-74
2024/04/09 04:11:36;;;;;;;6.50;4.10;;;;;;;12.61;100.00;100409.00;5428611;26;20312;-72
2024/04/09 04:14:03;;;;;;;9.20;4.60;;;;;;;12.65;100.00;100409.22;5396510;26;20003;-76
2024/04/09 04:16:29;;;;;;;8.70;4.93;;;;;;;12.64;100.00;100413.78;5395110;26;20017;-74
2024/04/09 04:18:55;;;;;;;;;;;;;;;12.67;100.00;100418.59;5393860;26;20084;-73
2024/04/09 04:21:24;;;;;;;10.20;4.22;;;;;;;12.66;100.00;100416.19;5435346;26;19956;-75
2024/04/09 04:23:54;;;;;;;9.38;5.65;;;;;;;12.65;100.00;100422.66;5440227;26;20003;-73
2024/04/09 04:26:21;;;;;;;8.48;5.05;;;;;;;12.65;100.00;100438.78;5423281;26;20468;-74
2024/04/09 04:28:48;;;;;;;8.07;4.85;;;;;;;12.65;100.00;100431.50;5374707;26;20380;-74
2024/04/09 04:31:16;;;;;;;9.25;5.13;;;;;;;12.68;100.00;100433.63;5429057;26;20264;-74
2024/04/09 04:33:43;;;;;;;10.70;5.90;;;;;;;12.70;100.00;100426.06;5426170;26;19999;-73
2024/04/09 04:36:10;;;;;;;11.30;6.40;;;;;;;12.77;100.00;100418.44;5356622;26;20086;-74
2024/04/09 04:38:36;;;;;;;10.77;5.72;;;;;;;12.79;100.00;100410.88;5395620;26;20003;-73
2024/04/09 04:41:02;;;;;;;;;;;;;;;12.82;100.00;100407.63;5390535;26;20013;-75
2024/04/09 04:43:29;;;;;;;13.88;6.13;;;;;;;12.91;100.00;100401.56;5438536;26;20397;-73
2024/04/09 04:45:55;;;;;;;11.32;6.18;;;;;;;12.97;100.00;100403.09;5437166;26;19998;-73
2024/04/09 04:48:21;;;;;;;8.55;6.05;;;;;;;13.05;100.00;100399.72;5392830;26;19999;-72
2024/04/09 04:50:47;;;;;;;11.95;5.80;;;;;;;13.10;100.00;100383.53;5431313;26;20010;-72
2024/04/09 04:53:14;;;;;;;10.00;5.70;;;;;;;13.15;100.00;100367.31;5404122;26;20356;-73
2024/04/09 04:55:39;;;;;;;15.07;7.20;;;;;;;13.22;100.00;100362.38;5367872;26;20039;-72
2024/04/09 04:58:05;;;;;;;13.77;6.65;;;;;;;13.24;100.00;100333.28;5428272;26;20009;-73
2024/04/09 05:00:32;;;;;;;15.52;6.40;;;;;;;13.34;100.00;100325.03;5434546;26;20352;-72
2024/04/09 05:02:58;;;;;;;11.10;6.65;;;;;;;13.43;100.00;100313.59;5401768;26;20006;-73
2024/04/09 05:05:24;;;;;;;;;;;;;;;13.49;100.00;100302.44;5365731;26;20071;-74
2024/04/09 05:07:50;;;;;;;11.75;5.63;;;;;;;13.56;100.00;100304.72;5406512;26;19932;-73
2024/04/09 05:10:20;;;;;;;12.02;6.10;;;;;;;13.61;100.00;100289.25;5428549;26;20672;-73
2024/04/09 05:12:47;;;;;;;13.48;6.25;;;;;;;13.66;100.00;100274.91;5424700;26;20003;-75
2024/04/09 05:15:13;;;;;;;13.85;5.95;;;;;;;13.73;100.00;100288.75;5405735;26;20022;-72
2024/04/09 05:17:39;;;;;;;;;;;;;;;13.81;100.00;100293.41;5420071;26;20035;-74
2024/04/09 05:20:14;;;;;;;11.98;5.95;;;;;;;13.87;100.00;100296.78;5417348;26;19924;-73
2024/04/09 05:22:41;;;;;;;15.63;4.90;;;;;;;13.91;100.00;100277.06;5421119;26;20402;-74
2024/04/09 05:25:11;;;;;;;16.25;6.65;;;;;;;14.01;100.00;100283.31;5402916;26;20039;-72
2024/04/09 05:27:38;;;;;;;7.82;4.88;;;;;;;14.04;100.00;100285.41;5439291;26;20007;-74
2024/04/09 05:30:06;;;;;;;14.02;5.10;;;;;;;14.10;100.00;100292.28;5417588;26;20106;-73
2024/04/09 05:32:37;;;;;;;12.07;4.95;;;;;;;14.16;100.00;100293.75;5425102;26;20003;-75
2024/04/09 05:35:05;;;;;;;15.00;4.68;;;;;;;14.17;100.00;100311.50;5408236;26;20003;-73
2024/04/09 05:37:33;;;;;;;10.30;4.88;;;;;;;14.21;100.00;100307.88;5410126;26;20515;-72
2024/04/09 05:39:59;;;;;;;12.00;4.40;;;;;;;14.24;100.00;100309.19;5438143;26;20039;-75
2024/04/09 05:42:25;;;;;;;8.57;5.00;;;;;;;14.22;100.00;100305.97;5437098;26;20077;-75
2024/04/09 05:44:51;;;;;;;;;;;;;;;14.23;100.00;100299.50;5417542;26;20465;-75
2024/04/09 05:47:19;;;;;;;10.98;4.53;;;;;;;14.24;100.00;100287.63;5415139;26;20336;-73
2024/04/09 05:49:48;;;;;;;12.15;4.97;;;;;;;14.30;100.00;100289.13;5435438;26;20043;-72
2024/04/09 05:52:20;;;;;;;16.15;5.05;;;;;;;14.36;100.00;100293.28;5434865;26;20023;-73
2024/04/09 05:54:46;;;;;;;;;;;;;;;14.41;100.00;100290.44;5425756;26;20081;-74
2024/04/09 05:57:12;;;;;;;9.93;5.10;;;;;;;14.45;100.00;100296.81;5395579;26;20491;-73
2024/04/09 05:59:37;;;;;;;;;;;;;;;14.48;100.00;100301.63;5372419;26;20003;-75
2024/04/09 06:02:03;;;;;;;12.55;4.60;;;;;;;14.47;100.00;100307.31;5387389;26;20362;-73
2024/04/09 06:04:29;;;;;;;;;;;;;;;14.48;100.00;100301.63;5363601;26;20452;-75
2024/04/09 06:06:55;;;;;;;7.95;4.47;;;;;;;14.50;100.00;100287.06;5415075;26;19925;-72
2024/04/09 06:09:20;;;;;;;9.75;4.97;;;;;;;14.54;100.00;100277.25;5362354;26;19995;-74
2024/04/09 06:11:46;;;;;;;;;;;;;;;14.56;100.00;100288.50;5432663;26;20012;-73
2024/04/09 06:14:12;;;;;;;11.15;4.90;;;;;;;14.55;100.00;100281.53;5393710;26;19944;-74
2024/04/09 06:16:37;;;;;;;;;;;;;;;14.58;100.00;100270.16;5407335;26;19999;-73
2024/04/09 06:19:03;;;;;;;12.50;4.57;;;;;;;14.62;100.00;100298.88;5360625;26;19994;-73
2024/04/09 06:21:29;;;;;;;12.90;4.90;;;;;;;14.67;100.00;100295.25;5374017;26;20094;-72
2024/04/09 06:23:54;;;;;;;10.50;4.75;;;;;;;14.69;100.00;100284.94;5438101;26;20006;-73
2024/04/09 06:26:21;;;;;;;16.52;5.82;;;;;;;14.73;100.00;100313.69;5435908;26;20057;-74
2024/04/09 06:28:46;;;;;;;;;;;;;;;14.78;100.00;100315.47;5432900;26;19999;-73
2024/04/09 06:31:12;;;;;;;6.15;4.32;;;;;;;14.78;100.00;100325.47;5410917;26;19933;-71
2024/04/09 06:33:40;;;;;;;;;;;;;;;14.75;100.00;100306.09;5431398;26;19998;-72
2024/04/09 06:36:06;;;;;;;8.73;4.70;;;;;;;14.72;100.00;100332.88;5410083;26;19930;-73
2024/04/09 06:38:31;;;;;;;;;;;;;;;14.72;100.00;100322.09;5426333;26;20337;-71
2024/04/09 06:40:57;;;;;;;8.63;3.85;;;;;;;14.69;100.00;100363.13;5462879;26;19931;-72
2024/04/09 06:43:23;;;;;;;13.07;5.07;;;;;;;14.67;100.00;100454.28;5440129;26;21844;-72
2024/04/09 06:45:49;;;;;;;;;;;;;;;14.64;100.00;100419.84;5413638;26;20002;-74
2024/04/09 06:48:14;;;;;;;14.85;5.25;;;;;;;14.58;100.00;100424.56;5440433;26;19952;-72
2024/04/09 06:50:40;;;;;;;;;;;;;;;14.61;100.00;100452.78;5414583;26;20004;-73
2024/04/09 06:53:06;;;;;;;11.90;4.97;;;;;;;14.58;100.00;100438.03;5434729;26;19925;-73
2024/04/09 06:55:32;;;;;;;;;;;;;;;14.59;100.00;100434.22;5393294;26;20008;-77
2024/04/09 06:57:57;;;;;;;10.57;4.40;;;;;;;14.59;100.00;100438.81;5407690;26;20320;-72
2024/04/09 07:00:23;;;;;;;;;;;;;;;14.64;100.00;100439.50;5435655;26;20783;-73
2024/04/09 07:02:49;;;;;;;9.25;4.38;;;;;;;14.64;100.00;100438.72;5419319;26;20468;-74
2024/04/09 07:05:14;;;;;;;;;;;;;;;14.73;100.00;100447.66;5429686;26;20055;-73
2024/04/09 07:07:41;;;;;;;9.18;4.35;;;;;;;14.75;100.00;100440.06;5433183;26;19924;-71
2024/04/09 07:10:07;;;;;;;12.07;5.15;;;;;;;14.80;100.00;100439.94;5362627;26;20002;-73
2024/04/09 07:12:33;;;;;;;8.07;4.05;;;;;;;14.84;100.00;100438.25;5432831;26;20029;-72
2024/04/09 07:15:00;;;;;;;;;;;;;;;14.86;100.00;100457.59;5405138;26;20857;-73
2024/04/09 07:17:27;;;;;;;14.70;3.70;;;;;;;14.97;100.00;100450.06;5441563;26;22677;-72
2024/04/09 07:19:55;;;;;;;12.57;4.00;;;;;;;15.05;100.00;100448.56;5433856;26;20015;-74
2024/04/09 07:22:21;;;;;;;16.65;4.28;;;;;;;15.11;100.00;100437.34;5386888;26;20876;-75
2024/04/09 07:24:47;;;;;;;12.63;3.30;;;;;;;15.18;100.00;100442.31;5407781;26;20010;-72
2024/04/09 07:27:12;;;;;;;;;;;;;;;15.24;100.00;100435.66;5388707;26;20097;-72
2024/04/09 07:29:38;;;;;;;14.57;3.30;;;;;;;15.30;100.00;100419.03;5362369;26;19925;-71
2024/04/09 07:32:07;;;;;;;14.43;4.38;;;;;;;15.38;100.00;100420.22;5409512;26;20352;-73
2024/04/09 07:34:34;;;;;;;12.23;4.25;;;;;;;15.44;100.00;100445.16;5417736;26;20000;-72
2024/04/09 07:37:00;;;;;;;15.48;3.63;;;;;;;15.51;100.00;100432.81;5370492;26;20000;-73
2024/04/09 07:39:27;;;;;;;14.60;3.55;;;;;;;15.61;100.00;100423.66;5419421;26;20567;-76
2024/04/09 07:41:53;;;;;;;8.77;3.45;;;;;;;15.67;100.00;100429.75;5400194;26;20093;-75
2024/04/09 07:44:19;;;;;;;;;;;;;;;15.78;100.00;100449.94;5401784;26;20079;-74
2024/04/09 07:46:48;;;;;;;12.70;2.90;;;;;;;15.84;100.00;100454.09;5438783;26;20532;-74
2024/04/09 07:49:15;;;;;;;14.57;4.13;;;;;;;15.97;100.00;100455.09;5372135;26;20003;-73
2024/04/09 07:51:40;;;;;;;17.70;4.28;;;;;;;16.05;100.00;100444.34;5395603;26;19999;-71
2024/04/09 07:54:07;;;;;;;;;;;;;;;16.07;100.00;100441.34;5430964;26;20017;-75
2024/04/09 07:56:33;;;;;;;12.02;3.25;;;;;;;16.19;100.00;100454.22;5406088;26;19932;-75
2024/04/09 07:59:01;;;;;;;14.32;3.85;;;;;;;16.24;100.00;100459.47;5433767;26;20007;-74
2024/04/09 08:01:27;;;;;;;16.95;3.70;;;;;;;16.30;100.00;100467.13;5412370;26;20352;-76
2024/04/09 08:03:53;;;;;;;12.43;3.28;;;;;;;16.32;100.00;100469.50;5436408;26;19999;-74
2024/04/09 08:06:19;;;;;;;11.90;3.42;;;;;;;16.35;100.00;100461.59;5407433;26;19998;-75
2024/04/09 08:08:45;;;;;;;;;;;;;;;16.35;100.00;100458.88;5442686;26;20118;-74
2024/04/09 08:11:13;;;;;;;12.43;3.70;;;;;;;16.44;100.00;100458.09;5401182;26;19924;-75
2024/04/09 08:13:38;;;;;;;13.40;2.92;;;;;;;16.45;100.00;100463.19;5438294;26;20013;-75
2024/04/09 08:16:05;;;;;;;9.68;2.30;;;;;;;16.54;100.00;100469.41;5436994;26;20003;-72
2024/04/09 08:18:31;;;;;;;7.50;2.30;;;;;;;16.60;100.00;100472.78;5432331;26;20019;-74
2024/04/09 08:20:57;;;;;;;12.90;3.35;;;;;;;16.64;100.00;100474.50;5435978;26;20084;-73
2024/04/09 08:23:23;;;;;;;;;;;;;;;16.67;100.00;100470.38;5430426;26;20086;-74
2024/04/09 08:25:51;;;;;;;8.82;2.97;;;;;;;16.74;100.00;100462.63;5427006;26;19947;-73
2024/04/09 08:28:20;;;;;;;9.10;2.90;;;;;;;16.79;100.00;100458.97;5405777;26;20085;-73
2024/04/09 08:30:48;;;;;;;13.05;3.40;;;;;;;16.87;100.00;100461.69;5401721;26;20047;-74
2024/04/09 08:33:14;;;;;;;12.07;2.85;;;;;;;16.94;100.00;100450.38;5399606;26;20014;-73
2024/04/09 08:35:51;;;;;;;8.13;2.13;;;;;;;17.01;100.00;100448.00;5405715;26;20003;-73
2024/04/09 08:38:22;;;;;;;10.93;3.05;;;;;;;17.06;100.00;100479.47;5425291;26;20011;-73
2024/04/09 08:40:48;;;;;;;12.52;3.15;;;;;;;17.12;100.00;100492.53;5364014;26;20006;-71
2024/04/09 08:43:15;;;;;;;;;;;;;;;17.16;100.00;100520.56;5399032;26;20394;-75
2024/04/09 08:45:43;;;;;;;9.93;3.10;;;;;;;17.22;100.00;100533.94;5431423;26;19924;-75
2024/04/09 08:48:10;;;;;;;7.85;2.40;;;;;;;17.28;100.00;100548.91;5420474;26;20081;-74
2024/04/09 08:50:38;;;;;;;11.07;2.72;;;;;;;17.20;100.00;100539.63;5396650;26;20019;-75
2024/04/09 08:53:04;;;;;;;7.05;2.22;;;;;;;17.27;100.00;100533.75;5402499;26;19999;-74
2024/04/09 08:55:30;;;;;;;10.70;2.42;;;;;;;17.32;100.00;100528.19;5427554;26;20460;-73
2024/04/09 08:57:57;;;;;;;9.30;2.67;;;;;;;17.40;100.00;100520.03;5436827;26;19999;-73
2024/04/09 09:00:22;;;;;;;8.82;3.25;;;;;;;17.43;100.00;100496.97;5419920;26;20012;-72
2024/04/09 09:02:48;;;;;;;12.98;2.67;;;;;;;17.49;100.00;100482.16;5430275;26;20046;-73
2024/04/09 09:05:17;;;;;;;;;;;;;;;17.57;100.00;100462.38;5435172;26;19999;-72
2024/04/09 09:07:43;;;;;;;10.48;2.42;;;;;;;17.59;100.00;100472.88;5429957;26;19932;-73
2024/04/09 09:10:10;;;;;;;6.07;1.85;;;;;;;17.67;100.00;100496.41;5436650;26;20337;-73
2024/04/09 09:12:36;;;;;;;8.43;2.85;;;;;;;17.73;100.00;100506.78;5399898;26;20013;-72
2024/04/09 09:15:01;;;;;;;7.97;2.67;;;;;;;17.77;100.00;100531.31;5368788;26;20448;-73
2024/04/09 09:17:31;;;;;;;9.20;2.92;;;;;;;17.80;100.00;100557.75;5437150;26;20003;-73
2024/04/09 09:19:59;;;;;;;8.80;2.90;;;;;;;17.85;100.00;100581.97;5430968;26;20452;-74
2024/04/09 09:22:29;;;;;;;8.65;3.20;;;;;;;17.93;100.00;100581.16;5427175;26;20022;-75
2024/04/09 09:24:58;;;;;;;8.90;2.50;;;;;;;17.97;100.00;100570.47;5396271;26;20415;-73
2024/04/09 09:27:26;;;;;;;6.20;2.90;;;;;;;18.08;100.00;100577.13;5435594;26;20012;-72
2024/04/09 09:29:56;;;;;;;12.70;3.17;;;;;;;18.10;100.00;100577.59;5427307;26;20007;-73
2024/04/09 09:32:23;;;;;;;9.45;3.03;;;;;;;18.10;100.00;100569.47;5429484;26;20718;-74
2024/04/09 09:34:51;;;;;;;7.53;2.28;;;;;;;18.14;100.00;100575.81;5439448;26;20044;-73
2024/04/09 09:37:17;;;;;;;8.48;2.42;;;;;;;18.21;100.00;100570.69;5429696;26;20003;-74
2024/04/09 09:39:44;;;;;;;6.72;2.05;;;;;;;18.23;100.00;100552.22;5430017;26;20003;-74
2024/04/09 09:42:12;;;;;;;9.90;2.45;;;;;;;18.19;100.00;100559.41;5373648;26;20056;-73
2024/04/09 09:44:41;;;;;;;8.00;2.20;;;;;;;18.26;100.00;100584.09;5433112;26;20006;-75
2024/04/09 09:47:07;;;;;;;6.13;1.80;;;;;;;18.21;100.00;100589.66;5391527;26;20078;-73
2024/04/09 09:49:34;;;;;;;7.60;2.75;;;;;;;18.16;100.00;100589.88;5422625;26;20011;-75
2024/04/09 09:52:01;;;;;;;5.78;1.73;;;;;;;18.13;100.00;100605.97;5435906;26;19999;-75
2024/04/09 09:54:28;;;;;;;6.57;2.30;;;;;;;18.06;100.00;100625.44;5417063;26;20000;-74
2024/04/09 09:57:04;;;;;;;6.90;1.90;;;;;;;18.07;100.00;100635.16;5397456;26;19999;-74
2024/04/09 09:59:36;;;;;;;6.18;2.75;;;;;;;18.06;100.00;100638.19;5402968;26;20003;-76
2024/04/09 10:02:05;;;;;;;5.63;1.90;;;;;;;17.98;100.00;100626.25;5426510;26;20007;-73
2024/04/09 10:04:30;;;;;;;6.57;2.45;;;;;;;17.97;100.00;100620.03;5435043;26;20105;-73
2024/04/09 10:06:58;;;;;;;3.38;1.83;;;;;;;17.92;100.00;100638.38;5431083;26;20012;-75
2024/04/09 10:09:40;;;;;;;5.40;2.22;;;;;;;17.83;100.00;100629.47;5434144;26;20374;-75
2024/04/09 10:12:09;;;;;;;4.50;1.80;;;;;;;17.76;100.00;100646.22;5426821;26;20008;-73
2024/04/09 10:14:41;;;;;;;5.07;2.50;;;;;;;17.69;100.00;100660.19;5420758;26;20002;-75
2024/04/09 10:17:13;;;;;;;5.22;1.70;;;;;;;17.67;100.00;100645.38;5428484;26;20707;-74
2024/04/09 10:19:41;;;;;;;5.93;2.08;;;;;;;17.69;100.00;100625.00;5398381;26;20015;-73
2024/04/09 10:22:06;;;;;;;4.05;1.98;;;;;;;17.74;100.00;100648.41;5434135;26;20035;-75
2024/04/09 10:24:37;;;;;;;5.22;2.20;;;;;;;17.69;100.00;100668.31;5424726;26;20013;-73
2024/04/09 10:27:04;;;;;;;7.43;2.95;;;;;;;17.62;100.00;100657.19;5420018;26;20018;-74
2024/04/09 10:29:32;;;;;;;7.53;2.83;;;;;;;17.64;100.00;100657.66;5393183;26;20007;-74
2024/04/09 10:31:57;;;;;;;7.57;2.50;;;;;;;17.63;100.00;100666.88;5439674;26;20018;-76
2024/04/09 10:34:26;;;;;;;6.78;3.08;;;;;;;17.59;100.00;100668.63;5427693;26;20008;-74
2024/04/09 10:36:55;;;;;;;5.57;2.45;;;;;;;17.49;100.00;100652.72;5432101;26;20003;-75
2024/04/09 10:39:21;;;;;;;5.60;2.20;;;;;;;17.44;100.00;100658.28;5398097;26;20003;-73
2024/04/09 10:41:56;;;;;;;4.40;2.40;;;;;;;17.43;100.00;100654.78;5400700;26;20021;-75
2024/04/09 10:44:23;;;;;;;6.75;3.20;;;;;;;17.43;100.00;100670.22;5424323;26;20666;-71
2024/04/09 10:46:48;;;;;;;6.75;3.03;;;;;;;17.32;100.00;100674.34;5433473;26;20014;-74
2024/04/09 10:49:17;;;;;;;7.28;3.25;;;;;;;17.22;100.00;100674.66;5416679;26;20006;-75
2024/04/09 10:51:47;;;;;;;7.28;3.30;;;;;;;17.10;100.00;100695.00;5425160;26;20460;-74
2024/04/09 10:54:14;;;;;;;4.93;2.70;;;;;;;17.03;100.00;100689.25;5366914;26;20075;-73
2024/04/09 10:56:39;;;;;;;7.80;3.67;;;;;;;16.95;100.00;100687.31;5401001;26;20018;-72
2024/04/09 10:59:17;;;;;;;7.13;2.78;;;;;;;17.04;100.00;100669.19;5397884;26;20004;-73
2024/04/09 11:01:43;;;;;;;5.15;3.05;;;;;;;17.17;100.00;100670.97;5403899;26;20097;-76
2024/04/09 11:04:13;;;;;;;7.20;3.28;;;;;;;17.22;100.00;100678.16;5435023;26;20014;-72
2024/04/09 11:06:42;;;;;;;6.93;3.58;;;;;;;17.18;100.00;100702.31;5404160;26;20031;-75
2024/04/09 11:09:08;;;;;;;7.45;2.92;;;;;;;17.15;100.00;100705.69;5424184;26;20050;-75
2024/04/09 11:11:37;;;;;;;6.93;3.72;;;;;;;17.14;100.00;100711.41;5429842;26;20004;-72
2024/04/09 11:14:03;;;;;;;4.63;2.78;;;;;;;17.11;100.00;100693.88;5427808;26;20025;-74
2024/04/09 11:16:29;;;;;;;9.38;3.33;;;;;;;17.15;100.00;100685.94;5402823;26;20754;-75
2024/04/09 11:19:00;;;;;;;4.07;2.72;;;;;;;17.13;100.00;100682.72;5417483;26;20007;-73
2024/04/09 11:21:28;;;;;;;5.65;3.22;;;;;;;17.05;100.00;100697.03;5431879;26;20007;-73